Time;durP1;ratioP1;P1;durP2;ratioP2;P2;SDS_P1;SDS_P2;PMS_P1;PMS_P2;Temp;Humidity;BMP_temperature;BMP_pressure;BME280_temperature;BME280_humidity;BME280_pressure;Samples;Min_cycle;Max_cycle;Signal;HPM_P1;HPM_P2
2021/12/16 00:08:35;;;;;;;279.88;36.35;;;;;;;;;;5032985;28;97366;-74
2021/12/16 00:19:52;;;;;;;242.38;33.50;;;;;;;;;;5025140;28;95201;-74
2021/12/16 00:33:16;;;;;;;379.92;37.45;;;;;;;;;;5018825;28;95307;-75
2021/12/16 00:35:44;;;;;;;356.70;37.05;;;;;;;;;;5032698;28;96852;-74
2021/12/16 00:38:10;;;;;;;449.98;41.15;;;;;;;;;;5032288;28;96012;-74
2021/12/16 00:40:40;;;;;;;408.23;39.00;;;;;;;;;;5032471;28;95340;-74
2021/12/16 00:43:18;;;;;;;354.90;36.17;;;;;;;;;;5034532;28;96509;-74
2021/12/16 00:46:09;;;;;;;280.40;34.72;;;;;;;;;;5032855;28;95175;-74
2021/12/16 00:49:06;;;;;;;396.23;38.42;;;;;;;;;;5032323;28;96760;-74
2021/12/16 00:54:17;;;;;;;273.45;37.83;;;;;;;;;;5032166;28;95154;-74
2021/12/16 00:56:46;;;;;;;247.02;37.10;;;;;;;;;;5032264;28;96838;-74
2021/12/16 00:59:14;;;;;;;240.85;37.60;;;;;;;;;;5032151;28;97169;-74
2021/12/16 01:04:58;;;;;;;190.77;35.58;;;;;;;;;;4990068;28;96652;-74
2021/12/16 01:07:57;;;;;;;290.20;36.67;;;;;;;;;;5014982;28;97674;-74
2021/12/16 01:35:23;;;;;;;495.50;42.55;;;;;;;;;;5031529;28;97150;-74
2021/12/16 01:40:32;;;;;;;408.42;38.78;;;;;;;;;;5031290;28;96872;-75
2021/12/16 01:46:04;;;;;;;241.40;37.00;;;;;;;;;;5035295;28;95294;-75
2021/12/16 01:51:26;;;;;;;437.48;39.30;;;;;;;;;;5034453;28;96958;-75
2021/12/16 01:57:03;;;;;;;292.45;35.25;;;;;;;;;;5037989;28;96923;-74
2021/12/16 01:59:35;;;;;;;290.50;37.75;;;;;;;;;;5033919;28;95441;-75
2021/12/16 02:02:18;;;;;;;385.92;39.55;;;;;;;;;;5034882;28;96634;-74
2021/12/16 02:10:16;;;;;;;177.00;33.25;;;;;;;;;;5014742;28;96860;-74
2021/12/16 02:31:58;;;;;;;107.05;29.73;;;;;;;;;;5033401;28;96756;-75
2021/12/16 02:34:42;;;;;;;144.63;31.63;;;;;;;;;;5033808;28;97302;-75
2021/12/16 02:37:16;;;;;;;120.03;28.70;;;;;;;;;;5033288;28;95275;-75
2021/12/16 02:39:43;;;;;;;170.65;32.38;;;;;;;;;;5034743;28;96992;-75
2021/12/16 02:42:13;;;;;;;138.27;30.75;;;;;;;;;;5036697;28;97475;-75
2021/12/16 02:50:10;;;;;;;134.98;31.77;;;;;;;;;;5033669;28;96677;-75
2021/12/16 02:52:36;;;;;;;156.60;32.15;;;;;;;;;;5034207;28;97163;-75
2021/12/16 02:55:03;;;;;;;110.57;27.83;;;;;;;;;;5032847;27;97208;-74
2021/12/16 02:57:33;;;;;;;110.53;29.00;;;;;;;;;;5034699;28;95353;-74
2021/12/16 03:00:00;;;;;;;147.68;30.95;;;;;;;;;;5034362;28;96700;-74
2021/12/16 03:02:27;;;;;;;146.65;31.33;;;;;;;;;;5032329;28;97246;-74
2021/12/16 03:04:54;;;;;;;156.10;34.17;;;;;;;;;;5037219;28;95210;-74
2021/12/16 03:07:21;;;;;;;163.00;34.60;;;;;;;;;;5033662;28;96108;-74
2021/12/16 03:10:22;;;;;;;153.65;34.22;;;;;;;;;;5033579;28;95303;-74
2021/12/16 03:12:53;;;;;;;156.05;33.90;;;;;;;;;;5033805;28;96742;-75
2021/12/16 03:18:23;;;;;;;137.32;32.47;;;;;;;;;;5034094;28;95119;-74
2021/12/16 03:20:55;;;;;;;158.15;33.83;;;;;;;;;;5032696;28;95582;-75
2021/12/16 03:23:59;;;;;;;177.40;33.65;;;;;;;;;;5013070;28;97326;-75
2021/12/16 03:29:36;;;;;;;184.60;35.05;;;;;;;;;;5036721;28;96700;-75
2021/12/16 03:37:18;;;;;;;239.70;35.60;;;;;;;;;;5032301;28;127080;-75
2021/12/16 03:39:53;;;;;;;248.00;37.92;;;;;;;;;;5033867;28;95044;-75
2021/12/16 03:42:26;;;;;;;370.10;40.85;;;;;;;;;;5033161;28;96808;-75
2021/12/16 03:44:58;;;;;;;382.90;41.47;;;;;;;;;;5033126;28;97376;-75
2021/12/16 03:47:28;;;;;;;247.45;37.40;;;;;;;;;;5033786;28;95283;-74
2021/12/16 03:49:55;;;;;;;449.80;45.60;;;;;;;;;;5034103;28;96877;-74
2021/12/16 03:52:22;;;;;;;278.42;37.40;;;;;;;;;;5034745;28;97281;-75
2021/12/16 03:54:50;;;;;;;253.60;36.33;;;;;;;;;;5033839;28;96967;-75
2021/12/16 03:57:18;;;;;;;356.77;39.92;;;;;;;;;;5032730;28;97512;-75
2021/12/16 03:59:44;;;;;;;409.33;38.65;;;;;;;;;;5032984;28;95552;-74
2021/12/16 04:02:14;;;;;;;364.40;37.75;;;;;;;;;;5032548;28;97010;-74
2021/12/16 04:04:41;;;;;;;436.38;41.90;;;;;;;;;;5012703;28;97200;-74
2021/12/16 04:07:08;;;;;;;341.85;38.80;;;;;;;;;;5031902;28;95435;-74
2021/12/16 04:09:35;;;;;;;220.48;35.22;;;;;;;;;;5033289;28;96546;-74
2021/12/16 04:12:08;;;;;;;419.48;40.35;;;;;;;;;;5013940;28;97470;-74
2021/12/16 04:14:38;;;;;;;382.83;39.63;;;;;;;;;;5036378;28;95260;-74
2021/12/16 04:17:06;;;;;;;292.90;36.95;;;;;;;;;;5015302;28;97249;-74
2021/12/16 04:19:33;;;;;;;217.70;33.53;;;;;;;;;;5032989;28;95314;-75
2021/12/16 04:22:03;;;;;;;348.67;39.10;;;;;;;;;;5032614;28;97009;-74
2021/12/16 04:24:30;;;;;;;287.95;36.20;;;;;;;;;;5012793;28;98098;-74
2021/12/16 04:26:57;;;;;;;325.50;38.90;;;;;;;;;;5023598;28;95276;-74
2021/12/16 04:29:27;;;;;;;292.85;35.72;;;;;;;;;;5031901;28;95780;-74
2021/12/16 04:31:54;;;;;;;277.23;38.38;;;;;;;;;;5032911;28;97530;-74
2021/12/16 04:34:21;;;;;;;282.67;37.42;;;;;;;;;;5035145;28;95220;-73
2021/12/16 04:36:47;;;;;;;306.95;35.80;;;;;;;;;;5032325;28;95984;-73
2021/12/16 04:39:16;;;;;;;239.05;32.40;;;;;;;;;;5014445;28;95355;-73
2021/12/16 04:41:43;;;;;;;257.33;34.22;;;;;;;;;;5031722;28;97063;-73
2021/12/16 04:44:14;;;;;;;201.32;32.67;;;;;;;;;;5014318;28;97233;-75
2021/12/16 04:46:42;;;;;;;344.45;36.70;;;;;;;;;;5033120;28;95250;-74
2021/12/16 04:49:09;;;;;;;315.92;35.33;;;;;;;;;;5031883;28;96795;-75
2021/12/16 04:51:39;;;;;;;346.10;36.83;;;;;;;;;;5032524;28;97492;-75
2021/12/16 04:54:06;;;;;;;294.73;33.83;;;;;;;;;;5031876;28;95712;-75
2021/12/16 04:56:33;;;;;;;298.92;33.38;;;;;;;;;;5035195;28;96771;-74
2021/12/16 04:59:08;;;;;;;264.27;33.28;;;;;;;;;;5032774;28;96060;-74
2021/12/16 05:01:39;;;;;;;251.05;31.55;;;;;;;;;;5032436;28;95687;-74
2021/12/16 05:04:05;;;;;;;212.02;31.00;;;;;;;;;;5031666;28;97315;-75
2021/12/16 05:06:32;;;;;;;197.02;31.40;;;;;;;;;;5032278;28;95248;-74
2021/12/16 05:08:59;;;;;;;307.77;34.72;;;;;;;;;;5032204;28;96842;-74
2021/12/16 05:11:26;;;;;;;233.57;35.13;;;;;;;;;;5032135;28;97173;-74
2021/12/16 05:13:53;;;;;;;344.77;33.85;;;;;;;;;;5032079;28;95358;-74
2021/12/16 05:16:19;;;;;;;266.20;33.90;;;;;;;;;;5031731;28;97419;-75
2021/12/16 05:18:45;;;;;;;165.05;29.27;;;;;;;;;;5035295;28;97443;-75
2021/12/16 05:21:36;;;;;;;291.83;33.85;;;;;;;;;;5031467;28;96779;-75
2021/12/16 05:24:16;;;;;;;281.33;32.95;;;;;;;;;;5020333;28;96058;-75
2021/12/16 05:26:46;;;;;;;178.77;29.85;;;;;;;;;;5032178;28;95100;-75
2021/12/16 05:29:12;;;;;;;317.52;32.67;;;;;;;;;;5031340;28;96786;-74
2021/12/16 05:31:39;;;;;;;248.40;30.30;;;;;;;;;;5032141;28;97247;-74
2021/12/16 05:34:06;;;;;;;147.82;26.75;;;;;;;;;;5031773;28;96592;-73
2021/12/16 05:36:33;;;;;;;167.20;27.80;;;;;;;;;;5031035;28;96715;-73
2021/12/16 05:38:59;;;;;;;293.08;30.33;;;;;;;;;;5031226;28;97362;-73
2021/12/16 05:41:26;;;;;;;351.67;33.75;;;;;;;;;;5034950;28;95333;-74
2021/12/16 05:43:53;;;;;;;284.05;30.83;;;;;;;;;;5030655;28;96231;-74
2021/12/16 05:46:21;;;;;;;278.90;33.83;;;;;;;;;;5031602;28;95274;-74
2021/12/16 05:48:50;;;;;;;170.68;27.10;;;;;;;;;;5031962;28;96855;-75
2021/12/16 05:51:19;;;;;;;339.77;34.72;;;;;;;;;;5026752;28;96799;-74
2021/12/16 05:53:46;;;;;;;298.98;30.95;;;;;;;;;;5026294;28;95433;-74
2021/12/16 05:56:12;;;;;;;229.50;29.42;;;;;;;;;;5028434;28;96578;-76
2021/12/16 05:58:39;;;;;;;274.63;29.88;;;;;;;;;;5030057;28;96147;-75
2021/12/16 06:01:07;;;;;;;331.27;31.95;;;;;;;;;;5013073;28;95387;-75
2021/12/16 06:03:34;;;;;;;216.23;27.90;;;;;;;;;;5034737;28;96857;-75
2021/12/16 06:06:01;;;;;;;277.73;29.80;;;;;;;;;;5031219;28;95230;-74
2021/12/16 06:08:27;;;;;;;348.50;32.92;;;;;;;;;;5031448;28;96835;-75
2021/12/16 06:11:14;;;;;;;151.43;25.58;;;;;;;;;;5031709;28;97424;-75
2021/12/16 06:13:45;;;;;;;273.90;29.90;;;;;;;;;;5030161;28;95242;-75
2021/12/16 06:29:28;;;;;;;223.63;25.85;;;;;;;;;;5031975;27;96886;-74
2021/12/16 06:31:55;;;;;;;106.13;23.40;;;;;;;;;;5034747;28;97128;-75
2021/12/16 06:34:22;;;;;;;460.83;33.60;;;;;;;;;;5034259;28;95159;-74
2021/12/16 06:36:48;;;;;;;103.47;24.55;;;;;;;;;;5035022;28;97117;-74
2021/12/16 06:39:14;;;;;;;163.40;25.42;;;;;;;;;;5033846;28;97477;-74
2021/12/16 06:41:41;;;;;;;315.05;28.35;;;;;;;;;;5034123;28;95557;-75
2021/12/16 06:44:16;;;;;;;278.70;26.52;;;;;;;;;;5033738;28;96973;-74
2021/12/16 06:46:44;;;;;;;416.00;33.55;;;;;;;;;;5037127;28;97242;-74
2021/12/16 06:49:14;;;;;;;199.18;29.05;;;;;;;;;;5034523;28;96807;-74
2021/12/16 06:51:49;;;;;;;89.63;22.02;;;;;;;;;;5033579;28;97116;-76
2021/12/16 06:54:25;;;;;;;86.38;22.17;;;;;;;;;;5016253;28;95293;-75
2021/12/16 06:57:17;;;;;;;93.78;20.20;;;;;;;;;;5034946;28;96752;-75
2021/12/16 06:59:53;;;;;;;224.20;24.20;;;;;;;;;;5034373;28;97369;-75
2021/12/16 07:05:09;;;;;;;98.35;19.35;;;;;;;;;;5033942;28;96861;-75
2021/12/16 07:07:36;;;;;;;336.27;24.80;;;;;;;;;;5033979;28;97101;-76
2021/12/16 07:10:03;;;;;;;392.70;27.10;;;;;;;;;;5038069;28;95268;-75
2021/12/16 07:12:36;;;;;;;60.20;17.08;;;;;;;;;;5033697;28;98153;-75
2021/12/16 07:15:07;;;;;;;272.73;21.55;;;;;;;;;;5033998;28;95370;-75
2021/12/16 07:17:33;;;;;;;175.80;23.70;;;;;;;;;;5033924;28;96846;-75
2021/12/16 07:20:00;;;;;;;138.38;21.67;;;;;;;;;;5033752;28;97287;-75
2021/12/16 07:22:26;;;;;;;246.68;25.52;;;;;;;;;;5031376;28;95370;-75
2021/12/16 07:24:52;;;;;;;76.68;19.90;;;;;;;;;;5033472;28;96798;-75
2021/12/16 07:27:18;;;;;;;64.65;19.40;;;;;;;;;;5032703;28;97286;-75
2021/12/16 07:29:45;;;;;;;136.43;21.50;;;;;;;;;;5015296;28;95392;-75
2021/12/16 07:32:11;;;;;;;76.50;20.15;;;;;;;;;;5036513;28;96849;-75
2021/12/16 07:34:37;;;;;;;270.98;26.80;;;;;;;;;;5033486;28;95191;-75
2021/12/16 07:37:06;;;;;;;98.20;21.08;;;;;;;;;;5031906;28;96840;-75
2021/12/16 07:39:38;;;;;;;279.27;26.83;;;;;;;;;;5032778;28;97298;-75
2021/12/16 15:44:48;;;;;;;48.80;28.33;;;;;;;;;;5047445;27;97352;-75
2021/12/16 15:47:15;;;;;;;49.50;28.05;;;;;;;;;;5045954;27;95320;-75
2021/12/16 15:49:41;;;;;;;54.63;26.88;;;;;;;;;;5046536;27;96932;-75
2021/12/16 15:52:08;;;;;;;98.40;33.45;;;;;;;;;;5046951;27;97376;-75
2021/12/16 15:54:35;;;;;;;57.53;27.33;;;;;;;;;;5049731;27;96273;-75
2021/12/16 15:57:02;;;;;;;60.17;28.13;;;;;;;;;;5045619;27;97370;-75
2021/12/16 15:59:29;;;;;;;65.05;25.23;;;;;;;;;;5046678;27;95343;-76
2021/12/16 16:01:58;;;;;;;51.47;25.55;;;;;;;;;;5046338;27;96832;-76
2021/12/16 16:04:28;;;;;;;56.90;25.45;;;;;;;;;;5046544;27;96973;-76
2021/12/16 16:07:00;;;;;;;67.13;27.02;;;;;;;;;;5047230;27;95119;-76
2021/12/16 16:09:29;;;;;;;115.80;28.10;;;;;;;;;;5046245;27;96890;-75
2021/12/16 16:11:56;;;;;;;242.20;33.30;;;;;;;;;;5046662;27;97449;-75
2021/12/16 16:14:23;;;;;;;195.48;33.83;;;;;;;;;;5045377;27;95626;-75
2021/12/16 16:16:53;;;;;;;88.20;29.92;;;;;;;;;;5049356;27;97072;-76
2021/12/16 16:19:21;;;;;;;178.88;30.35;;;;;;;;;;5045376;27;95345;-76
2021/12/16 16:21:49;;;;;;;236.05;31.27;;;;;;;;;;5046490;27;96820;-76
2021/12/16 16:24:22;;;;;;;152.90;31.95;;;;;;;;;;5045167;27;98405;-75
2021/12/16 16:26:49;;;;;;;323.88;34.72;;;;;;;;;;5046474;27;97195;-76
2021/12/16 16:29:18;;;;;;;108.30;32.72;;;;;;;;;;5043811;27;96855;-76
2021/12/16 16:31:45;;;;;;;96.85;31.40;;;;;;;;;;5044756;27;97166;-76
2021/12/16 16:34:12;;;;;;;218.25;36.72;;;;;;;;;;5046180;27;95242;-75
2021/12/16 16:36:40;;;;;;;158.20;35.17;;;;;;;;;;5046977;27;96713;-76
2021/12/16 16:39:08;;;;;;;206.40;38.38;;;;;;;;;;5048671;27;97233;-76
2021/12/16 16:41:39;;;;;;;76.57;33.50;;;;;;;;;;5046593;27;96659;-76
2021/12/16 16:44:11;;;;;;;353.60;41.30;;;;;;;;;;5037763;27;97347;-76
2021/12/16 16:46:45;;;;;;;82.93;32.42;;;;;;;;;;5031890;27;95256;-76
2021/12/16 16:49:25;;;;;;;75.28;29.20;;;;;;;;;;5031500;27;96935;-76
2021/12/16 16:51:53;;;;;;;238.30;34.08;;;;;;;;;;5027975;28;97349;-76
2021/12/16 16:54:28;;;;;;;386.17;38.20;;;;;;;;;;5032587;27;95308;-77
2021/12/16 16:57:02;;;;;;;81.45;30.83;;;;;;;;;;5032799;27;97059;-76
2021/12/16 16:59:33;;;;;;;77.18;31.35;;;;;;;;;;5031761;27;96562;-76
2021/12/16 17:02:03;;;;;;;207.00;33.20;;;;;;;;;;5033759;27;95766;-76
2021/12/16 17:04:32;;;;;;;199.77;40.10;;;;;;;;;;5023406;28;96082;-76
2021/12/16 17:06:59;;;;;;;248.15;36.35;;;;;;;;;;5032166;27;95434;-76
2021/12/16 17:09:34;;;;;;;121.60;31.35;;;;;;;;;;5032129;27;96773;-81
2021/12/16 17:12:03;;;;;;;73.88;30.17;;;;;;;;;;5032620;28;99063;-77
2021/12/16 17:14:42;;;;;;;70.68;29.15;;;;;;;;;;5031223;28;95308;-77
2021/12/16 17:17:20;;;;;;;60.53;27.60;;;;;;;;;;5030039;28;96751;-76
2021/12/16 17:19:54;;;;;;;210.85;31.75;;;;;;;;;;5032115;27;97383;-77
2021/12/16 17:22:28;;;;;;;50.60;26.73;;;;;;;;;;5031517;28;96145;-76
2021/12/16 17:24:55;;;;;;;66.25;29.33;;;;;;;;;;5034749;28;96810;-76
2021/12/16 17:27:23;;;;;;;168.82;37.38;;;;;;;;;;5027975;28;95339;-76
2021/12/16 17:29:57;;;;;;;306.73;43.15;;;;;;;;;;5033269;27;95624;-77
2021/12/16 17:32:24;;;;;;;124.53;38.72;;;;;;;;;;5031320;27;97754;-77
2021/12/16 17:34:51;;;;;;;196.30;38.38;;;;;;;;;;5030709;27;95583;-76
2021/12/16 17:37:27;;;;;;;189.35;35.05;;;;;;;;;;5032027;28;96789;-77
2021/12/16 17:39:56;;;;;;;145.20;32.05;;;;;;;;;;5031820;27;97196;-76
2021/12/16 17:42:28;;;;;;;80.32;29.73;;;;;;;;;;5030604;28;95394;-76
2021/12/16 17:44:57;;;;;;;116.47;30.38;;;;;;;;;;5031849;28;96815;-76
2021/12/16 17:47:28;;;;;;;58.88;25.85;;;;;;;;;;5033820;28;95370;-77
2021/12/16 17:49:54;;;;;;;67.80;27.77;;;;;;;;;;5030755;28;97207;-77
2021/12/16 17:52:25;;;;;;;76.30;27.02;;;;;;;;;;5031410;27;97322;-76
2021/12/16 17:54:53;;;;;;;55.22;25.75;;;;;;;;;;5030398;27;95105;-76
2021/12/16 17:57:30;;;;;;;171.05;30.98;;;;;;;;;;5029706;28;96770;-76
2021/12/16 17:59:57;;;;;;;136.65;28.77;;;;;;;;;;5031548;28;97364;-76
2021/12/16 18:02:24;;;;;;;90.38;27.15;;;;;;;;;;5031090;27;95330;-76
2021/12/16 18:04:52;;;;;;;73.25;25.23;;;;;;;;;;5032101;28;96826;-76
2021/12/16 18:07:20;;;;;;;335.55;34.03;;;;;;;;;;5034774;27;97490;-76
2021/12/16 18:09:47;;;;;;;261.13;33.78;;;;;;;;;;5030331;28;96709;-76
2021/12/16 18:12:13;;;;;;;112.28;30.67;;;;;;;;;;5029675;27;97338;-76
2021/12/16 18:14:45;;;;;;;137.82;28.55;;;;;;;;;;5031899;28;95939;-76
2021/12/16 18:17:13;;;;;;;213.93;32.95;;;;;;;;;;5030573;27;96955;-76
2021/12/16 18:19:56;;;;;;;366.33;38.53;;;;;;;;;;5031458;28;97561;-76
2021/12/16 18:22:28;;;;;;;92.47;30.65;;;;;;;;;;5029829;28;95149;-76
2021/12/16 18:24:57;;;;;;;108.82;30.60;;;;;;;;;;5031237;28;96729;-76
2021/12/16 18:27:29;;;;;;;206.80;32.30;;;;;;;;;;5030409;27;97411;-76
2021/12/16 18:30:00;;;;;;;108.83;30.13;;;;;;;;;;5033058;27;96645;-76
2021/12/16 18:32:28;;;;;;;140.73;35.40;;;;;;;;;;5029133;27;96466;-76
2021/12/16 18:34:55;;;;;;;68.82;32.05;;;;;;;;;;5031606;27;95306;-76
2021/12/16 18:37:22;;;;;;;70.63;31.17;;;;;;;;;;5030306;28;96834;-76
2021/12/16 18:39:49;;;;;;;112.43;33.65;;;;;;;;;;5030091;28;97377;-76
2021/12/16 18:42:21;;;;;;;61.97;29.23;;;;;;;;;;5030371;27;95171;-76
2021/12/16 18:44:50;;;;;;;64.47;31.90;;;;;;;;;;5017428;28;96794;-76
2021/12/16 18:47:23;;;;;;;56.22;30.02;;;;;;;;;;5029718;27;96821;-76
2021/12/16 18:49:55;;;;;;;54.95;29.80;;;;;;;;;;5031074;27;95219;-76
2021/12/16 18:52:34;;;;;;;66.07;31.65;;;;;;;;;;5033221;28;96784;-76
2021/12/16 18:55:02;;;;;;;45.92;27.52;;;;;;;;;;5030851;28;95207;-76
2021/12/16 18:57:28;;;;;;;46.92;27.95;;;;;;;;;;5030257;27;96786;-76
2021/12/16 18:59:55;;;;;;;44.55;26.95;;;;;;;;;;5029741;28;97273;-76
2021/12/16 19:02:23;;;;;;;53.80;31.33;;;;;;;;;;5030068;27;95352;-76
2021/12/16 19:04:51;;;;;;;41.45;26.80;;;;;;;;;;5029700;28;96646;-76
2021/12/16 19:07:19;;;;;;;43.35;26.70;;;;;;;;;;5029267;27;96137;-76
2021/12/16 19:09:46;;;;;;;56.15;29.13;;;;;;;;;;5030699;27;95342;-76
2021/12/16 19:12:16;;;;;;;43.65;26.98;;;;;;;;;;5029974;27;96483;-78
2021/12/16 19:14:47;;;;;;;43.75;27.45;;;;;;;;;;5022627;28;97279;-76
2021/12/16 19:17:21;;;;;;;52.30;29.00;;;;;;;;;;5016686;28;97169;-77
2021/12/16 19:19:50;;;;;;;47.25;29.73;;;;;;;;;;5020377;28;97246;-77
2021/12/16 19:22:18;;;;;;;44.58;27.58;;;;;;;;;;5023797;28;95323;-77
2021/12/16 19:24:44;;;;;;;46.13;28.17;;;;;;;;;;5013437;28;96774;-77
2021/12/16 19:27:12;;;;;;;63.22;31.45;;;;;;;;;;5026803;28;97587;-76
2021/12/16 19:29:39;;;;;;;54.75;32.55;;;;;;;;;;5023507;28;96401;-77
2021/12/16 19:32:06;;;;;;;75.70;38.17;;;;;;;;;;5021093;28;96927;-77
2021/12/16 19:34:33;;;;;;;53.08;31.35;;;;;;;;;;5017033;27;97395;-77
2021/12/16 19:36:59;;;;;;;51.92;30.15;;;;;;;;;;5028948;28;95368;-77
2021/12/16 19:39:26;;;;;;;43.30;28.63;;;;;;;;;;5022016;27;97335;-78
2021/12/16 19:41:53;;;;;;;51.92;31.60;;;;;;;;;;5026442;28;97096;-77
2021/12/16 19:44:22;;;;;;;44.42;27.52;;;;;;;;;;5027298;28;96718;-77
2021/12/16 19:46:49;;;;;;;47.00;29.85;;;;;;;;;;5024567;28;97339;-78
2021/12/16 19:49:16;;;;;;;43.15;27.58;;;;;;;;;;5015546;28;95478;-77
2021/12/16 19:51:44;;;;;;;38.38;26.52;;;;;;;;;;5025977;27;97266;-77
2021/12/16 19:54:11;;;;;;;41.47;26.65;;;;;;;;;;5017796;28;97380;-77
2021/12/16 19:56:38;;;;;;;50.00;29.02;;;;;;;;;;5029741;27;95406;-78
2021/12/16 19:59:05;;;;;;;47.03;27.85;;;;;;;;;;5013275;28;97339;-78
2021/12/16 20:01:32;;;;;;;42.03;26.98;;;;;;;;;;5014324;28;95322;-77
2021/12/16 20:04:02;;;;;;;47.78;28.80;;;;;;;;;;5013003;28;96784;-78
2021/12/16 20:06:30;;;;;;;48.20;29.13;;;;;;;;;;5024341;28;97264;-78
2021/12/16 20:08:57;;;;;;;48.95;29.75;;;;;;;;;;5016409;28;95415;-77
2021/12/16 20:11:26;;;;;;;48.80;27.88;;;;;;;;;;5023721;28;96838;-77
2021/12/16 20:13:53;;;;;;;52.75;32.10;;;;;;;;;;5016166;28;97361;-77
2021/12/16 20:16:23;;;;;;;57.60;32.45;;;;;;;;;;5024798;28;95319;-77
2021/12/16 20:18:50;;;;;;;47.40;28.48;;;;;;;;;;5024419;28;96769;-77
2021/12/16 20:21:20;;;;;;;48.03;28.10;;;;;;;;;;5020025;28;95260;-77
2021/12/16 20:23:46;;;;;;;49.90;28.50;;;;;;;;;;5030764;28;97049;-77
2021/12/16 20:26:16;;;;;;;43.97;28.10;;;;;;;;;;5018130;28;97294;-78
2021/12/16 20:28:51;;;;;;;47.78;29.10;;;;;;;;;;5029754;28;95181;-78
2021/12/16 20:31:20;;;;;;;46.05;27.60;;;;;;;;;;5019801;27;96826;-77
2021/12/16 20:33:50;;;;;;;48.95;28.35;;;;;;;;;;5029853;28;97399;-77
2021/12/16 20:36:18;;;;;;;47.25;27.90;;;;;;;;;;5025937;28;96648;-78
2021/12/16 20:38:48;;;;;;;38.85;25.15;;;;;;;;;;5023309;28;96862;-77
2021/12/16 20:41:18;;;;;;;43.90;26.10;;;;;;;;;;5031325;28;98075;-78
2021/12/16 20:43:46;;;;;;;40.63;25.58;;;;;;;;;;5022348;28;97075;-77
2021/12/16 20:46:15;;;;;;;46.53;25.80;;;;;;;;;;5025059;28;97663;-77
2021/12/16 20:48:52;;;;;;;39.22;25.98;;;;;;;;;;5024085;28;95453;-77
2021/12/16 20:51:24;;;;;;;38.63;25.08;;;;;;;;;;5019202;27;96907;-77
2021/12/16 20:53:51;;;;;;;37.72;24.25;;;;;;;;;;5019374;28;97380;-77
2021/12/16 20:56:17;;;;;;;43.30;25.35;;;;;;;;;;5021854;27;95197;-77
2021/12/16 20:58:49;;;;;;;44.38;26.65;;;;;;;;;;5025894;28;97182;-78
2021/12/16 21:01:20;;;;;;;51.42;27.38;;;;;;;;;;5031122;27;96862;-78
2021/12/16 21:03:47;;;;;;;47.17;26.40;;;;;;;;;;5036578;28;95153;-77
2021/12/16 21:06:16;;;;;;;46.03;26.70;;;;;;;;;;5031617;27;97219;-77
2021/12/16 21:08:43;;;;;;;55.60;27.08;;;;;;;;;;5028388;28;95838;-77
2021/12/16 21:11:12;;;;;;;55.25;25.95;;;;;;;;;;5027870;28;97093;-77
2021/12/16 21:13:39;;;;;;;49.35;26.50;;;;;;;;;;5023800;28;97241;-78
2021/12/16 21:16:06;;;;;;;39.75;23.42;;;;;;;;;;5029771;27;95322;-78
2021/12/16 21:18:32;;;;;;;43.85;25.65;;;;;;;;;;5022354;28;97224;-78
2021/12/16 21:20:59;;;;;;;57.72;29.75;;;;;;;;;;5024049;28;97176;-76
2021/12/16 21:23:25;;;;;;;48.95;26.42;;;;;;;;;;5028307;27;95382;-76
2021/12/16 21:25:52;;;;;;;45.20;26.35;;;;;;;;;;5033692;28;96908;-75
2021/12/16 21:28:21;;;;;;;55.47;29.33;;;;;;;;;;5023872;28;95287;-76
2021/12/16 21:30:47;;;;;;;63.13;29.63;;;;;;;;;;5026605;28;96716;-76
2021/12/16 21:33:21;;;;;;;57.13;30.05;;;;;;;;;;5028603;28;99291;-76
2021/12/16 21:35:57;;;;;;;55.45;28.23;;;;;;;;;;5024006;28;95136;-76
2021/12/16 21:38:25;;;;;;;58.90;30.85;;;;;;;;;;5025422;28;96805;-75
2021/12/16 21:40:52;;;;;;;62.70;30.35;;;;;;;;;;5022120;28;97571;-75
2021/12/16 21:43:18;;;;;;;55.53;28.85;;;;;;;;;;5024721;27;95072;-75
2021/12/16 21:45:45;;;;;;;60.78;30.15;;;;;;;;;;5025874;28;96493;-75
2021/12/16 21:48:11;;;;;;;60.17;30.00;;;;;;;;;;5027209;28;97309;-77
2021/12/16 21:50:40;;;;;;;56.72;29.17;;;;;;;;;;5025261;27;96735;-77
2021/12/16 21:53:07;;;;;;;59.90;31.00;;;;;;;;;;5026856;28;97251;-78
2021/12/16 21:55:34;;;;;;;57.50;29.60;;;;;;;;;;5025616;28;95202;-78
2021/12/16 21:58:04;;;;;;;62.97;31.00;;;;;;;;;;5030335;28;96821;-75
2021/12/16 22:00:32;;;;;;;64.40;30.63;;;;;;;;;;5031644;27;97463;-76
2021/12/16 22:03:00;;;;;;;77.00;32.38;;;;;;;;;;5032539;27;95820;-76
2021/12/16 22:05:26;;;;;;;65.57;30.67;;;;;;;;;;5032490;28;97292;-76
2021/12/16 22:07:53;;;;;;;63.40;31.75;;;;;;;;;;5035185;28;97323;-76
2021/12/16 22:10:19;;;;;;;65.38;31.80;;;;;;;;;;5031892;28;96822;-76
2021/12/16 22:12:49;;;;;;;66.57;32.33;;;;;;;;;;5032560;28;96754;-76
2021/12/16 22:15:17;;;;;;;67.00;32.80;;;;;;;;;;5029328;27;95378;-76
2021/12/16 22:17:43;;;;;;;61.92;32.00;;;;;;;;;;5029699;28;96026;-76
2021/12/16 22:20:13;;;;;;;59.53;30.08;;;;;;;;;;5030860;27;98623;-76
2021/12/16 22:22:40;;;;;;;68.93;31.55;;;;;;;;;;5032230;28;96496;-76
2021/12/16 22:25:07;;;;;;;64.75;32.22;;;;;;;;;;5033060;27;96738;-76
2021/12/16 22:27:34;;;;;;;76.82;30.95;;;;;;;;;;5033046;27;96275;-76
2021/12/16 22:30:01;;;;;;;68.63;31.58;;;;;;;;;;5035513;28;95315;-76
2021/12/16 22:32:27;;;;;;;79.03;33.45;;;;;;;;;;5031054;28;97339;-76
2021/12/16 22:34:53;;;;;;;69.43;35.20;;;;;;;;;;5032706;28;95303;-76
2021/12/16 22:37:22;;;;;;;77.13;34.53;;;;;;;;;;5032218;27;96881;-76
2021/12/16 22:39:48;;;;;;;60.40;32.20;;;;;;;;;;5032597;27;97593;-76
2021/12/16 22:42:15;;;;;;;69.90;32.00;;;;;;;;;;5031890;27;95309;-78
2021/12/16 22:44:42;;;;;;;55.03;28.25;;;;;;;;;;5032640;28;96765;-76
2021/12/16 22:47:09;;;;;;;61.05;30.85;;;;;;;;;;5031219;27;96889;-75
2021/12/16 22:49:36;;;;;;;60.92;31.17;;;;;;;;;;5032980;27;95202;-76
2021/12/16 22:52:04;;;;;;;61.28;31.55;;;;;;;;;;5035001;27;96964;-76
2021/12/16 22:54:30;;;;;;;63.30;31.40;;;;;;;;;;5033339;27;95103;-76
2021/12/16 22:56:56;;;;;;;68.47;31.70;;;;;;;;;;5032837;27;96758;-75
2021/12/16 22:59:25;;;;;;;67.72;32.15;;;;;;;;;;5031589;28;97245;-76
2021/12/16 23:01:55;;;;;;;60.20;31.42;;;;;;;;;;5032129;27;95405;-76
2021/12/16 23:04:22;;;;;;;64.57;30.73;;;;;;;;;;5011932;28;96697;-75
2021/12/16 23:06:48;;;;;;;63.30;30.90;;;;;;;;;;5012409;28;97314;-77
2021/12/16 23:09:16;;;;;;;71.78;33.22;;;;;;;;;;5012569;28;95394;-76
2021/12/16 23:11:43;;;;;;;62.53;32.10;;;;;;;;;;5028787;28;96892;-76
2021/12/16 23:14:15;;;;;;;67.57;33.50;;;;;;;;;;5035136;28;97371;-75
2021/12/16 23:25:05;;;;;;;52.38;28.65;;;;;;;;;;5031602;28;96863;-75
2021/12/16 23:27:32;;;;;;;60.22;31.95;;;;;;;;;;5031927;27;97291;-75
2021/12/16 23:29:58;;;;;;;53.58;30.38;;;;;;;;;;5032140;28;95354;-76
2021/12/16 23:32:25;;;;;;;48.25;28.60;;;;;;;;;;5030091;27;96689;-76
2021/12/16 23:34:51;;;;;;;55.38;30.15;;;;;;;;;;5031894;27;97339;-76
2021/12/16 23:37:17;;;;;;;52.25;28.35;;;;;;;;;;5035007;28;95368;-76
2021/12/16 23:39:44;;;;;;;55.78;29.98;;;;;;;;;;5031588;28;97366;-76
2021/12/16 23:53:14;;;;;;;49.85;27.33;;;;;;;;;;5031579;27;97095;-76
2021/12/16 23:53:20;;;;;;;51.05;26.95;;;;;;;;;;4969842;28;96967;-76
2021/12/16 23:55:57;;;;;;;53.70;28.70;;;;;;;;;;4988064;28;96866;-76
2021/12/16 23:58:25;;;;;;;66.40;31.40;;;;;;;;;;5018041;27;95186;-76
